createdAt,value
2022-11-23T00:04:33.403Z,4.20
2022-11-23T00:09:35.310Z,4.10
2022-11-23T00:14:37.472Z,4.10
2022-11-23T00:19:39.313Z,4.10
2022-11-23T00:24:41.227Z,4.10
2022-11-23T00:29:43.085Z,4.10
2022-11-23T00:34:45.113Z,4.10
2022-11-23T00:39:46.955Z,4.10
2022-11-23T00:44:48.798Z,4.10
2022-11-23T00:49:50.745Z,4.00
2022-11-23T00:54:52.691Z,4.10
2022-11-23T00:59:54.668Z,4.10
2022-11-23T01:04:56.503Z,4.10
2022-11-23T01:09:58.502Z,4.10
2022-11-23T01:15:00.516Z,4.10
2022-11-23T01:20:02.348Z,4.10
2022-11-23T01:25:04.564Z,4.10
2022-11-23T01:30:07.196Z,4.10
2022-11-23T01:35:09.219Z,4.10
2022-11-23T01:40:11.624Z,4.10
2022-11-23T01:45:55.855Z,4.10
2022-11-23T01:50:59.069Z,4.10
2022-11-23T01:56:03.275Z,4.10
2022-11-23T02:01:06.307Z,4.10
2022-11-23T02:06:12.961Z,4.10
2022-11-23T02:11:16.004Z,4.10
2022-11-23T02:16:18.399Z,4.10
2022-11-23T02:21:20.265Z,4.10
2022-11-23T02:26:26.620Z,4.10
2022-11-23T02:31:28.709Z,4.20
2022-11-23T02:36:49.410Z,4.20
2022-11-23T02:41:53.612Z,4.20
2022-11-23T02:46:55.628Z,4.20
2022-11-23T02:51:57.501Z,4.20
2022-11-23T02:56:59.553Z,4.20
2022-11-23T03:02:02.636Z,4.20
2022-11-23T03:07:04.495Z,4.30
2022-11-23T03:12:06.725Z,4.30
2022-11-23T03:17:08.687Z,4.20
2022-11-23T03:22:10.714Z,4.30
2022-11-23T03:27:12.628Z,4.30
2022-11-23T03:32:14.462Z,4.30
2022-11-23T03:37:16.328Z,4.30
2022-11-23T03:42:18.183Z,4.30
2022-11-23T03:47:20.119Z,4.30
2022-11-23T03:52:21.973Z,4.30
2022-11-23T03:57:24.941Z,4.30
2022-11-23T04:02:26.930Z,4.30
2022-11-23T04:07:28.846Z,4.30
2022-11-23T04:12:30.716Z,4.30
2022-11-23T04:17:32.709Z,4.30
2022-11-23T04:22:34.610Z,4.30
2022-11-23T04:27:36.992Z,4.20
2022-11-23T04:32:38.820Z,4.30
2022-11-23T04:37:40.938Z,4.20
2022-11-23T04:42:42.775Z,4.20
2022-11-23T04:47:44.620Z,4.20
2022-11-23T04:52:46.502Z,4.20
2022-11-23T04:57:48.743Z,4.20
2022-11-23T05:02:50.653Z,4.20
2022-11-23T05:07:52.487Z,4.20
2022-11-23T05:12:54.313Z,4.20
2022-11-23T05:18:04.271Z,4.20
2022-11-23T05:23:06.220Z,4.20
2022-11-23T05:28:38.530Z,4.30
2022-11-23T05:33:35.349Z,4.30
2022-11-23T05:38:37.178Z,4.20
2022-11-23T05:43:39.020Z,4.20
2022-11-23T05:48:40.851Z,4.30
2022-11-23T05:53:42.707Z,4.30
2022-11-23T05:58:44.721Z,4.30
2022-11-23T06:03:46.669Z,4.30
2022-11-23T06:08:49.344Z,4.20
2022-11-23T06:13:51.304Z,4.30
2022-11-23T06:18:53.419Z,4.30
2022-11-23T06:23:55.693Z,4.30
2022-11-23T06:28:58.088Z,4.30
2022-11-23T06:34:00.062Z,4.30
2022-11-23T06:39:02.105Z,4.20
2022-11-23T06:44:04.029Z,4.30
2022-11-23T06:49:06.204Z,4.30
2022-11-23T06:54:09.021Z,4.30
2022-11-23T06:59:11.161Z,4.30
2022-11-23T07:04:13.215Z,4.30
2022-11-23T07:09:15.056Z,4.40
2022-11-23T07:14:16.922Z,4.40
2022-11-23T07:19:18.889Z,4.50
2022-11-23T07:24:20.789Z,4.60
2022-11-23T07:29:22.690Z,4.60
2022-11-23T07:34:24.532Z,4.70
2022-11-23T07:39:48.887Z,4.80
2022-11-23T07:44:48.189Z,4.80
2022-11-23T07:49:50.036Z,4.90
2022-11-23T07:54:51.920Z,4.90
2022-11-23T07:59:53.879Z,5.00
2022-11-23T08:04:55.864Z,5.00
2022-11-23T08:09:57.768Z,4.90
2022-11-23T08:14:59.596Z,4.90
2022-11-23T08:20:01.596Z,4.90
2022-11-23T08:25:03.726Z,5.00
2022-11-23T08:30:06.289Z,5.00
2022-11-23T08:35:08.201Z,5.20
2022-11-23T08:40:14.157Z,5.30
2022-11-23T08:45:16.034Z,5.40
2022-11-23T08:50:18.103Z,5.50
2022-11-23T08:55:19.943Z,5.70
2022-11-23T09:00:22.311Z,5.90
2022-11-23T09:05:25.107Z,6.00
2022-11-23T09:10:27.125Z,6.10
2022-11-23T09:15:29.180Z,6.10
2022-11-23T09:20:31.980Z,6.10
2022-11-23T09:25:33.811Z,6.20
2022-11-23T09:30:36.165Z,6.20
2022-11-23T09:35:43.444Z,6.30
2022-11-23T09:40:45.530Z,6.40
2022-11-23T09:45:50.067Z,6.50
2022-11-23T09:50:56.483Z,6.50
2022-11-23T09:55:58.567Z,6.40
2022-11-23T10:01:03.012Z,6.30
2022-11-23T10:06:17.277Z,6.20
2022-11-23T10:11:37.585Z,6.10
2022-11-23T10:17:03.506Z,6.10
2022-11-23T10:22:22.545Z,6.00
2022-11-23T10:27:24.783Z,6.00
2022-11-23T10:32:26.768Z,6.10
2022-11-23T10:37:28.628Z,6.20
2022-11-23T10:42:37.377Z,6.30
2022-11-23T10:47:43.099Z,6.40
2022-11-23T10:52:51.667Z,6.50
2022-11-23T10:57:54.021Z,6.60
2022-11-23T11:02:57.438Z,6.70
2022-11-23T11:08:02.144Z,6.80
2022-11-23T11:13:04.384Z,6.90
2022-11-23T11:18:18.327Z,6.90
2022-11-23T11:23:21.832Z,7.00
2022-11-23T11:28:26.775Z,6.90
2022-11-23T11:33:51.639Z,6.90
2022-11-23T11:39:15.393Z,6.90
2022-11-23T11:44:26.951Z,6.90
2022-11-23T11:49:32.701Z,6.90
2022-11-23T11:54:52.241Z,6.90
2022-11-23T11:59:57.505Z,6.80
2022-11-23T12:05:13.002Z,6.80
2022-11-23T12:10:30.416Z,6.80
2022-11-23T12:15:53.387Z,6.80
2022-11-23T12:20:55.257Z,6.70
2022-11-23T12:26:01.758Z,6.70
2022-11-23T12:31:23.783Z,6.70
2022-11-23T12:36:31.531Z,6.60
2022-11-23T12:42:09.817Z,6.60
2022-11-23T12:47:33.686Z,6.50
2022-11-23T12:52:41.480Z,6.40
2022-11-23T12:57:52.512Z,6.30
2022-11-23T13:02:57.316Z,6.20
2022-11-23T13:08:27.930Z,6.20
2022-11-23T13:13:45.623Z,6.20
2022-11-23T13:18:47.614Z,6.10
2022-11-23T13:23:49.805Z,6.10
2022-11-23T13:28:53.452Z,6.20
2022-11-23T13:33:58.093Z,6.20
2022-11-23T13:39:01.671Z,6.20
2022-11-23T13:44:19.753Z,6.20
2022-11-23T13:49:50.105Z,6.10
2022-11-23T13:55:09.380Z,6.10
2022-11-23T14:00:50.135Z,6.10
2022-11-23T14:05:59.096Z,6.00
2022-11-23T14:11:01.376Z,6.00
2022-11-23T14:16:04.193Z,5.90
2022-11-23T14:21:40.507Z,5.90
2022-11-23T14:27:30.730Z,5.90
2022-11-23T14:32:43.058Z,5.90
2022-11-23T14:38:13.720Z,5.80
2022-11-23T14:43:19.656Z,5.80
2022-11-23T14:48:21.735Z,5.80
2022-11-23T14:53:29.508Z,5.70
2022-11-23T14:58:35.295Z,5.60
2022-11-23T15:03:52.403Z,5.60
2022-11-23T15:09:42.485Z,5.60
2022-11-23T15:14:44.379Z,5.60
2022-11-23T15:19:57.082Z,5.60
2022-11-23T15:25:08.299Z,5.50
2022-11-23T15:30:27.276Z,5.50
2022-11-23T15:35:35.469Z,5.50
2022-11-23T15:40:37.582Z,5.50
2022-11-23T15:46:00.038Z,5.50
2022-11-23T15:51:04.657Z,5.50
2022-11-23T15:56:07.399Z,5.50
2022-11-23T16:01:13.531Z,5.50
2022-11-23T16:06:24.679Z,5.50
2022-11-23T16:11:36.733Z,5.50
2022-11-23T16:16:44.058Z,5.50
2022-11-23T16:21:47.577Z,5.40
2022-11-23T16:26:49.677Z,5.50
2022-11-23T16:31:57.395Z,5.40
2022-11-23T16:37:03.416Z,5.40
2022-11-23T16:42:05.554Z,5.40
2022-11-23T16:47:36.906Z,5.40
2022-11-23T16:52:46.231Z,5.40
2022-11-23T16:57:48.909Z,5.30
2022-11-23T17:02:50.835Z,5.40
2022-11-23T17:07:52.840Z,5.40
2022-11-23T17:12:55.519Z,5.30
2022-11-23T17:17:57.365Z,5.30
2022-11-23T17:23:01.174Z,5.30
2022-11-23T17:28:04.496Z,5.30
2022-11-23T17:33:06.332Z,5.30
2022-11-23T17:38:14.401Z,5.30
2022-11-23T17:43:16.314Z,5.20
2022-11-23T17:48:21.298Z,5.30
2022-11-23T17:59:15.863Z,5.30
2022-11-23T18:04:17.883Z,5.30
2022-11-23T18:09:19.783Z,5.30
2022-11-23T18:14:22.303Z,5.20
2022-11-23T18:19:24.318Z,5.20
2022-11-23T18:24:26.276Z,5.20
2022-11-23T18:29:29.488Z,5.20
2022-11-23T18:34:31.362Z,5.20
2022-11-23T18:39:33.648Z,5.20
2022-11-23T18:50:07.286Z,5.20
2022-11-23T18:55:09.673Z,5.20
2022-11-23T19:00:12.914Z,5.20
2022-11-23T19:05:14.766Z,5.20
2022-11-23T19:10:17.298Z,5.20
2022-11-23T19:15:19.156Z,5.20
2022-11-23T19:20:23.651Z,5.20
2022-11-23T19:25:25.743Z,5.20
2022-11-23T19:30:27.625Z,5.30
2022-11-23T19:35:29.633Z,5.30
2022-11-23T19:40:31.565Z,5.30
2022-11-23T19:45:34.048Z,5.30
2022-11-23T19:50:35.892Z,5.30
2022-11-23T19:55:37.737Z,5.30
2022-11-23T20:00:39.829Z,5.30
2022-11-23T20:06:17.547Z,5.40
2022-11-23T20:11:19.384Z,5.30
2022-11-23T20:16:21.940Z,5.20
2022-11-23T20:21:24.092Z,5.20
2022-11-23T20:26:26.913Z,5.20
2022-11-23T20:31:30.503Z,5.10
2022-11-23T20:36:34.100Z,5.10
2022-11-23T20:41:37.187Z,5.10
2022-11-23T20:52:02.158Z,4.90
2022-11-23T20:57:04.174Z,4.90
2022-11-23T21:02:06.088Z,4.90
2022-11-23T21:07:08.051Z,4.80
2022-11-23T21:12:28.764Z,4.80
2022-11-23T21:17:30.576Z,4.80
2022-11-23T21:22:32.418Z,4.80
2022-11-23T21:27:34.563Z,4.80
2022-11-23T21:32:36.420Z,4.70
2022-11-23T21:37:38.566Z,4.70
2022-11-23T21:42:40.397Z,4.70
2022-11-23T21:47:42.264Z,4.80
2022-11-23T21:52:44.124Z,4.70
2022-11-23T21:57:45.953Z,4.70
2022-11-23T22:02:50.234Z,4.70
2022-11-23T22:08:13.590Z,4.70
2022-11-23T22:13:20.171Z,4.70
2022-11-23T22:18:22.049Z,4.80
2022-11-23T22:23:23.980Z,4.70
2022-11-23T22:28:25.857Z,4.70
2022-11-23T22:33:27.694Z,4.70
2022-11-23T22:38:32.214Z,4.70
2022-11-23T22:43:34.326Z,4.70
2022-11-23T22:48:40.100Z,4.70
2022-11-23T22:53:44.494Z,4.70
2022-11-23T22:58:47.846Z,4.70
2022-11-23T23:03:55.659Z,4.70
2022-11-23T23:08:59.235Z,4.70
2022-11-23T23:14:01.225Z,4.60
2022-11-23T23:19:03.587Z,4.60
2022-11-23T23:24:05.749Z,4.60
2022-11-23T23:29:08.741Z,4.60
2022-11-23T23:34:10.584Z,4.60
2022-11-23T23:39:12.623Z,4.60
2022-11-23T23:44:14.468Z,4.60
2022-11-23T23:49:16.639Z,4.60
2022-11-23T23:54:18.452Z,4.60
2022-11-23T23:59:20.303Z,4.60
